createdAt,value
2019-01-20T00:01:29.703Z,15.88
2019-01-20T00:04:00.688Z,15.43
2019-01-20T00:06:31.554Z,16.20
2019-01-20T00:09:03.885Z,14.63
2019-01-20T00:11:36.404Z,14.87
2019-01-20T00:14:07.618Z,14.45
2019-01-20T00:16:38.571Z,13.13
2019-01-20T00:19:09.485Z,14.23
2019-01-20T00:21:40.493Z,14.80
2019-01-20T00:24:11.445Z,14.85
2019-01-20T00:26:42.300Z,15.30
2019-01-20T00:29:13.267Z,15.20
2019-01-20T00:31:44.076Z,15.08
2019-01-20T00:34:15.081Z,14.33
2019-01-20T00:36:45.901Z,15.08
2019-01-20T00:39:16.840Z,14.40
2019-01-20T00:41:47.713Z,14.30
2019-01-20T00:44:18.626Z,13.75
2019-01-20T00:46:49.546Z,12.23
2019-01-20T00:49:20.464Z,13.98
2019-01-20T00:51:51.411Z,12.82
2019-01-20T00:54:22.430Z,14.35
2019-01-20T00:56:53.307Z,13.13
2019-01-20T00:59:24.249Z,13.80
2019-01-20T01:01:55.142Z,13.60
2019-01-20T01:04:26.063Z,14.30
2019-01-20T01:06:56.876Z,12.82
2019-01-20T01:09:27.789Z,14.98
2019-01-20T01:11:58.595Z,12.88
2019-01-20T01:14:29.545Z,13.13
2019-01-20T01:17:00.385Z,13.70
2019-01-20T01:19:31.231Z,14.18
2019-01-20T01:22:02.110Z,13.95
2019-01-20T01:24:33.096Z,11.93
2019-01-20T01:27:03.994Z,11.88
2019-01-20T01:29:34.905Z,13.13
2019-01-20T01:32:05.971Z,14.30
2019-01-20T01:34:36.900Z,12.25
2019-01-20T01:37:07.931Z,12.58
2019-01-20T01:39:38.865Z,11.85
2019-01-20T01:42:09.751Z,12.73
2019-01-20T01:44:40.607Z,12.53
2019-01-20T01:47:11.509Z,12.37
2019-01-20T01:49:42.485Z,12.53
2019-01-20T01:52:13.363Z,12.93
2019-01-20T01:54:45.247Z,12.40
2019-01-20T01:57:16.215Z,12.85
2019-01-20T01:59:47.264Z,11.48
2019-01-20T02:02:18.152Z,13.65
2019-01-20T02:04:49.009Z,12.18
2019-01-20T02:07:19.895Z,13.10
2019-01-20T02:09:50.980Z,12.60
2019-01-20T02:12:21.861Z,12.30
2019-01-20T02:14:52.799Z,13.30
2019-01-20T02:17:23.754Z,11.38
2019-01-20T02:19:54.710Z,12.40
2019-01-20T02:22:25.596Z,12.18
2019-01-20T02:24:56.587Z,11.93
2019-01-20T02:27:27.505Z,13.53
2019-01-20T02:29:58.350Z,11.20
2019-01-20T02:32:29.317Z,13.45
2019-01-20T02:35:00.241Z,11.40
2019-01-20T02:37:31.204Z,12.70
2019-01-20T02:40:02.129Z,13.50
2019-01-20T02:42:32.953Z,12.20
2019-01-20T02:45:06.605Z,12.53
2019-01-20T02:47:37.501Z,12.50
2019-01-20T02:50:13.056Z,12.60
2019-01-20T02:52:44.199Z,11.60
2019-01-20T02:55:15.271Z,12.25
2019-01-20T02:57:46.079Z,11.10
2019-01-20T03:00:24.345Z,10.35
2019-01-20T03:02:55.338Z,10.45
2019-01-20T03:05:26.369Z,12.58
2019-01-20T03:07:57.294Z,12.30
2019-01-20T03:10:28.144Z,12.00
2019-01-20T03:12:58.959Z,12.30
2019-01-20T03:15:29.875Z,11.68
2019-01-20T03:18:00.698Z,11.97
2019-01-20T03:20:31.689Z,11.97
2019-01-20T03:23:02.642Z,10.75
2019-01-20T03:25:33.496Z,10.82
2019-01-20T03:28:04.420Z,10.82
2019-01-20T03:30:35.285Z,12.47
2019-01-20T03:33:06.248Z,10.03
2019-01-20T03:35:37.402Z,10.15
2019-01-20T03:38:08.308Z,13.53
2019-01-20T03:40:39.226Z,11.83
2019-01-20T03:43:10.181Z,9.60
2019-01-20T03:45:41.165Z,11.65
2019-01-20T03:48:12.155Z,11.85
2019-01-20T03:50:42.999Z,9.13
2019-01-20T03:53:13.810Z,12.20
2019-01-20T03:55:44.726Z,9.80
2019-01-20T03:58:15.607Z,11.03
2019-01-20T04:00:46.593Z,10.60
2019-01-20T04:03:17.553Z,11.03
2019-01-20T04:05:48.541Z,8.80
2019-01-20T04:08:19.431Z,9.90
2019-01-20T04:10:50.345Z,10.68
2019-01-20T04:13:21.304Z,10.03
2019-01-20T04:15:52.256Z,9.93
2019-01-20T04:18:23.261Z,10.15
2019-01-20T04:20:54.303Z,9.18
2019-01-20T04:23:25.365Z,9.50
2019-01-20T04:25:56.274Z,9.13
2019-01-20T04:28:27.254Z,9.25
2019-01-20T04:30:58.155Z,9.10
2019-01-20T04:33:29.039Z,9.85
2019-01-20T04:36:00.027Z,9.38
2019-01-20T04:38:30.918Z,11.18
2019-01-20T04:41:01.766Z,8.90
2019-01-20T04:43:32.757Z,9.98
2019-01-20T04:46:03.792Z,9.40
2019-01-20T04:48:34.675Z,8.28
2019-01-20T04:51:05.679Z,9.03
2019-01-20T04:53:37.437Z,8.80
2019-01-20T04:56:08.363Z,9.48
2019-01-20T04:58:39.242Z,8.43
2019-01-20T05:01:10.158Z,9.03
2019-01-20T05:03:41.040Z,8.20
2019-01-20T05:06:12.025Z,8.58
2019-01-20T05:08:42.990Z,8.10
2019-01-20T05:11:13.918Z,8.65
2019-01-20T05:13:44.870Z,8.65
2019-01-20T05:16:15.817Z,7.97
2019-01-20T05:18:46.811Z,7.87
2019-01-20T05:21:17.801Z,8.75
2019-01-20T05:23:48.778Z,8.58
2019-01-20T05:26:19.894Z,8.63
2019-01-20T05:28:50.713Z,6.83
2019-01-20T05:31:21.563Z,7.40
2019-01-20T05:33:52.379Z,7.53
2019-01-20T05:36:23.295Z,7.60
2019-01-20T05:38:54.254Z,6.47
2019-01-20T05:41:25.746Z,7.35
2019-01-20T05:43:56.644Z,6.95
2019-01-20T05:46:27.494Z,7.47
2019-01-20T05:48:58.315Z,8.10
2019-01-20T05:51:29.229Z,8.95
2019-01-20T05:54:00.045Z,5.85
2019-01-20T05:56:30.896Z,6.37
2019-01-20T05:59:01.783Z,7.58
2019-01-20T06:01:32.717Z,7.58
2019-01-20T06:04:03.601Z,6.87
2019-01-20T06:06:34.443Z,6.83
2019-01-20T06:09:08.097Z,7.65
2019-01-20T06:11:39.074Z,6.17
2019-01-20T06:14:09.901Z,6.60
2019-01-20T06:16:40.765Z,7.10
2019-01-20T06:19:11.584Z,6.95
2019-01-20T06:21:42.503Z,7.15
2019-01-20T06:24:13.534Z,7.15
2019-01-20T06:26:44.457Z,7.45
2019-01-20T06:29:15.260Z,8.38
2019-01-20T06:31:47.152Z,8.03
2019-01-20T06:34:18.136Z,6.92
2019-01-20T06:36:49.059Z,8.05
2019-01-20T06:39:20.839Z,7.10
2019-01-20T06:41:51.649Z,7.65
2019-01-20T06:44:22.635Z,7.20
2019-01-20T06:46:53.639Z,8.75
2019-01-20T06:49:24.447Z,9.28
2019-01-20T06:51:55.411Z,10.80
2019-01-20T06:54:26.401Z,11.05
2019-01-20T06:56:57.318Z,23.27
2019-01-20T06:59:28.243Z,34.60
2019-01-20T07:01:59.209Z,36.75
2019-01-20T07:04:30.174Z,38.50
2019-01-20T07:07:01.063Z,29.63
2019-01-20T07:09:31.932Z,18.80
2019-01-20T07:12:02.883Z,12.35
2019-01-20T07:14:33.796Z,10.38
2019-01-20T07:17:04.750Z,13.48
2019-01-20T07:19:35.735Z,8.88
2019-01-20T07:22:06.714Z,9.08
2019-01-20T07:24:37.622Z,10.55
2019-01-20T07:27:08.574Z,8.58
2019-01-20T07:29:39.480Z,7.40
2019-01-20T07:32:10.433Z,8.90
2019-01-20T07:34:41.302Z,9.30
2019-01-20T07:37:12.205Z,9.43
2019-01-20T07:39:43.220Z,7.55
2019-01-20T07:42:14.130Z,9.05
2019-01-20T07:44:45.174Z,8.13
2019-01-20T07:47:16.055Z,7.83
2019-01-20T07:49:47.005Z,9.38
2019-01-20T07:52:17.887Z,9.30
2019-01-20T07:54:48.724Z,7.53
2019-01-20T07:57:19.524Z,6.92
2019-01-20T07:59:50.500Z,7.37
2019-01-20T08:02:21.381Z,6.50
2019-01-20T08:04:52.354Z,5.70
2019-01-20T08:07:23.207Z,5.62
2019-01-20T08:09:54.105Z,5.28
2019-01-20T08:12:24.901Z,5.92
2019-01-20T08:14:55.801Z,6.10
2019-01-20T08:17:26.630Z,6.40
2019-01-20T08:19:57.463Z,6.45
2019-01-20T08:22:28.412Z,6.75
2019-01-20T08:24:59.372Z,5.60
2019-01-20T08:27:30.251Z,6.28
2019-01-20T08:30:01.174Z,5.25
2019-01-20T08:32:32.043Z,6.78
2019-01-20T08:35:02.946Z,6.28
2019-01-20T08:37:34.389Z,6.05
2019-01-20T08:40:12.045Z,6.85
2019-01-20T08:42:42.985Z,7.53
2019-01-20T08:45:39.341Z,7.40
2019-01-20T08:48:20.845Z,6.55
2019-01-20T08:50:51.770Z,6.28
2019-01-20T08:53:22.574Z,6.45
2019-01-20T08:55:53.413Z,7.50
2019-01-20T08:58:24.346Z,6.05
2019-01-20T09:00:55.327Z,6.67
2019-01-20T09:03:26.181Z,4.40
2019-01-20T09:05:57.086Z,5.60
2019-01-20T09:08:28.146Z,5.80
2019-01-20T09:10:59.065Z,4.20
2019-01-20T09:13:30.049Z,4.45
2019-01-20T09:16:01.036Z,4.03
2019-01-20T09:18:31.834Z,4.75
2019-01-20T09:21:02.732Z,4.65
2019-01-20T09:23:33.526Z,5.40
2019-01-20T09:26:04.492Z,4.55
2019-01-20T09:28:35.296Z,5.37
2019-01-20T09:31:06.301Z,6.37
2019-01-20T09:33:38.249Z,4.92
2019-01-20T09:36:09.146Z,5.90
2019-01-20T09:38:40.010Z,6.40
2019-01-20T09:41:10.974Z,5.30
2019-01-20T09:43:47.100Z,6.67
2019-01-20T09:46:16.284Z,7.30
2019-01-20T09:48:47.343Z,7.70
2019-01-20T09:51:18.172Z,6.60
2019-01-20T09:53:49.128Z,7.25
2019-01-20T09:56:20.162Z,6.20
2019-01-20T09:58:52.579Z,6.97
2019-01-20T10:01:23.399Z,5.80
2019-01-20T10:03:54.275Z,6.50
2019-01-20T10:06:25.212Z,5.72
2019-01-20T10:08:56.415Z,4.92
2019-01-20T10:11:27.386Z,5.95
2019-01-20T10:13:58.252Z,6.50
2019-01-20T10:16:29.253Z,5.03
2019-01-20T10:19:00.113Z,5.05
2019-01-20T10:21:31.002Z,4.33
2019-01-20T10:24:01.968Z,5.50
2019-01-20T10:26:32.853Z,6.12
2019-01-20T10:29:03.746Z,3.10
2019-01-20T10:31:34.776Z,5.28
2019-01-20T10:34:05.807Z,3.75
2019-01-20T10:36:36.732Z,3.62
2019-01-20T10:39:11.248Z,5.12
2019-01-20T10:41:42.204Z,3.45
2019-01-20T10:44:13.086Z,3.83
2019-01-20T10:46:44.107Z,2.90
2019-01-20T10:49:14.996Z,3.60
2019-01-20T10:51:46.803Z,4.15
2019-01-20T10:54:17.699Z,4.10
2019-01-20T10:56:48.549Z,3.95
2019-01-20T10:59:19.558Z,4.60
2019-01-20T11:01:50.510Z,5.35
2019-01-20T11:04:21.406Z,4.42
2019-01-20T11:06:52.285Z,5.42
2019-01-20T11:09:23.103Z,5.30
2019-01-20T11:11:54.043Z,5.08
2019-01-20T11:14:24.863Z,5.50
2019-01-20T11:16:55.839Z,4.70
2019-01-20T11:19:26.788Z,4.67
2019-01-20T11:21:57.722Z,4.90
2019-01-20T11:24:28.765Z,5.90
2019-01-20T11:26:59.759Z,5.22
2019-01-20T11:29:30.838Z,4.60
2019-01-20T11:32:01.697Z,4.53
2019-01-20T11:34:32.596Z,4.37
2019-01-20T11:37:03.416Z,5.25
2019-01-20T11:39:34.261Z,4.72
2019-01-20T11:42:05.357Z,6.05
2019-01-20T11:44:36.310Z,5.35
2019-01-20T11:47:07.261Z,4.75
2019-01-20T11:49:38.173Z,5.53
2019-01-20T11:52:09.171Z,4.97
2019-01-20T11:54:40.222Z,4.90
2019-01-20T11:57:11.243Z,5.60
2019-01-20T11:59:42.063Z,6.58
2019-01-20T12:02:13.025Z,5.60
2019-01-20T12:04:43.883Z,5.90
2019-01-20T12:07:14.845Z,8.63
2019-01-20T12:09:45.710Z,10.80
2019-01-20T12:12:16.593Z,10.65
2019-01-20T12:14:47.490Z,10.58
2019-01-20T12:17:18.376Z,9.28
2019-01-20T12:19:49.332Z,9.03
2019-01-20T12:22:20.342Z,8.13
2019-01-20T12:24:51.350Z,9.33
2019-01-20T12:27:22.313Z,8.30
2019-01-20T12:29:53.101Z,9.63
2019-01-20T12:32:24.192Z,8.60
2019-01-20T12:34:55.047Z,8.85
2019-01-20T12:37:25.871Z,8.70
2019-01-20T12:39:56.762Z,10.45
2019-01-20T12:42:27.691Z,9.40
2019-01-20T12:44:58.614Z,9.90
2019-01-20T12:47:29.493Z,9.65
2019-01-20T12:50:00.458Z,8.43
2019-01-20T12:52:31.318Z,9.70
2019-01-20T12:55:02.297Z,9.30
2019-01-20T12:57:33.213Z,9.95
2019-01-20T13:00:06.943Z,10.45
2019-01-20T13:02:37.904Z,9.50
2019-01-20T13:05:08.996Z,11.22
2019-01-20T13:07:39.961Z,12.70
2019-01-20T13:10:19.205Z,13.03
2019-01-20T13:12:50.372Z,12.85
2019-01-20T13:15:25.424Z,11.35
2019-01-20T13:17:56.387Z,12.60
2019-01-20T13:20:27.853Z,11.85
2019-01-20T13:22:58.680Z,13.50
2019-01-20T13:25:30.345Z,12.10
2019-01-20T13:28:01.322Z,13.05
2019-01-20T13:30:32.369Z,14.03
2019-01-20T13:33:04.237Z,14.07
2019-01-20T13:35:35.102Z,11.97
2019-01-20T13:38:11.163Z,11.28
2019-01-20T13:40:46.731Z,9.33
2019-01-20T13:43:17.618Z,9.45
2019-01-20T13:45:48.484Z,8.75
2019-01-20T13:48:19.475Z,10.30
2019-01-20T13:50:50.451Z,12.05
2019-01-20T13:53:21.419Z,11.55
2019-01-20T13:55:52.289Z,12.45
2019-01-20T13:58:23.288Z,10.13
2019-01-20T14:00:54.250Z,10.38
2019-01-20T14:03:26.301Z,13.32
2019-01-20T14:05:57.241Z,12.43
2019-01-20T14:08:28.134Z,11.18
2019-01-20T14:10:59.096Z,12.10
2019-01-20T14:13:29.998Z,13.65
2019-01-20T14:16:00.940Z,11.83
2019-01-20T14:18:31.974Z,12.78
2019-01-20T14:21:02.846Z,12.18
2019-01-20T14:23:33.814Z,13.25
2019-01-20T14:26:04.611Z,11.70
2019-01-20T14:28:35.590Z,13.83
2019-01-20T14:31:06.385Z,12.23
2019-01-20T14:33:38.363Z,15.50
2019-01-20T14:36:09.238Z,14.87
2019-01-20T14:38:40.140Z,12.58
2019-01-20T14:41:14.091Z,14.00
2019-01-20T14:43:47.881Z,14.23
2019-01-20T14:46:18.841Z,11.97
2019-01-20T14:48:50.540Z,14.53
2019-01-20T14:51:21.572Z,12.95
2019-01-20T14:53:52.565Z,13.62
2019-01-20T14:56:26.442Z,14.58
2019-01-20T14:58:57.457Z,15.90
2019-01-20T15:01:28.391Z,15.70
2019-01-20T15:03:59.355Z,17.12
2019-01-20T15:06:30.225Z,18.27
2019-01-20T15:09:01.199Z,16.23
2019-01-20T15:11:33.345Z,15.10
2019-01-20T15:14:04.747Z,19.52
2019-01-20T15:16:35.647Z,17.77
2019-01-20T15:19:06.677Z,21.75
2019-01-20T15:21:37.491Z,17.92
2019-01-20T15:24:08.445Z,19.40
2019-01-20T15:26:39.413Z,18.05
2019-01-20T15:29:10.401Z,18.15
2019-01-20T15:31:41.391Z,17.75
2019-01-20T15:34:12.378Z,17.55
2019-01-20T15:36:43.351Z,18.73
2019-01-20T15:39:14.233Z,17.10
2019-01-20T15:41:45.210Z,19.70
2019-01-20T15:44:16.178Z,19.77
2019-01-20T15:46:47.225Z,19.77
2019-01-20T15:49:18.118Z,17.92
2019-01-20T15:51:49.103Z,19.40
2019-01-20T15:54:20.082Z,19.42
2019-01-20T15:56:51.059Z,21.37
2019-01-20T15:59:22.051Z,19.35
2019-01-20T16:01:53.157Z,20.60
2019-01-20T16:04:24.305Z,20.00
2019-01-20T16:06:55.300Z,23.77
2019-01-20T16:09:26.257Z,21.87
2019-01-20T16:11:57.170Z,22.42
2019-01-20T16:14:28.173Z,22.80
2019-01-20T16:16:59.266Z,23.27
2019-01-20T16:19:30.296Z,21.62
2019-01-20T16:22:01.203Z,21.95
2019-01-20T16:24:32.108Z,20.68
2019-01-20T16:27:03.410Z,20.82
2019-01-20T16:29:37.213Z,23.85
2019-01-20T16:32:08.225Z,21.40
2019-01-20T16:34:39.279Z,23.57
2019-01-20T16:37:10.312Z,24.02
2019-01-20T16:39:45.593Z,22.82
2019-01-20T16:42:13.949Z,24.85
2019-01-20T16:44:44.854Z,26.12
2019-01-20T16:47:15.863Z,21.93
2019-01-20T16:49:46.884Z,24.07
2019-01-20T16:52:17.799Z,23.20
2019-01-20T16:54:49.783Z,23.38
2019-01-20T16:57:20.736Z,24.40
2019-01-20T16:59:51.791Z,26.62
2019-01-20T17:02:22.827Z,25.85
2019-01-20T17:04:54.836Z,24.90
2019-01-20T17:07:25.854Z,23.95
2019-01-20T17:09:56.846Z,24.75
2019-01-20T17:12:27.791Z,23.90
2019-01-20T17:14:58.753Z,24.60
2019-01-20T17:17:30.214Z,25.95
2019-01-20T17:20:01.263Z,25.95
2019-01-20T17:22:32.341Z,22.27
2019-01-20T17:25:04.023Z,24.77
2019-01-20T17:27:34.948Z,24.95
2019-01-20T17:30:10.387Z,26.12
2019-01-20T17:32:41.447Z,25.35
2019-01-20T17:35:12.627Z,25.40
2019-01-20T17:37:43.601Z,23.27
2019-01-20T17:40:23.437Z,25.17
2019-01-20T17:42:54.416Z,23.52
2019-01-20T17:45:29.052Z,23.50
2019-01-20T17:48:01.377Z,25.20
2019-01-20T17:50:35.771Z,24.02
2019-01-20T17:53:08.344Z,23.73
2019-01-20T17:55:39.363Z,21.85
2019-01-20T17:58:10.293Z,22.73
2019-01-20T18:00:42.949Z,22.45
2019-01-20T18:03:14.243Z,23.52
2019-01-20T18:05:45.299Z,23.55
2019-01-20T18:08:16.274Z,25.77
2019-01-20T18:10:47.300Z,25.90
2019-01-20T18:13:19.790Z,26.12
2019-01-20T18:15:54.679Z,23.05
2019-01-20T18:18:23.482Z,26.80
2019-01-20T18:20:54.513Z,28.07
2019-01-20T18:23:25.400Z,30.48
2019-01-20T18:25:56.382Z,27.50
2019-01-20T18:28:27.298Z,27.37
2019-01-20T18:30:58.241Z,28.30
2019-01-20T18:33:29.336Z,28.17
2019-01-20T18:36:00.476Z,30.08
2019-01-20T18:38:31.457Z,29.85
2019-01-20T18:41:02.320Z,28.85
2019-01-20T18:43:33.272Z,32.00
2019-01-20T18:46:04.272Z,32.38
2019-01-20T18:48:35.248Z,33.98
2019-01-20T18:51:06.182Z,33.33
2019-01-20T18:53:38.163Z,32.80
2019-01-20T18:56:09.238Z,31.00
2019-01-20T18:58:40.178Z,33.28
2019-01-20T19:01:11.684Z,32.38
2019-01-20T19:03:42.723Z,32.98
2019-01-20T19:06:13.709Z,31.65
2019-01-20T19:08:44.866Z,33.13
2019-01-20T19:11:15.752Z,33.30
2019-01-20T19:13:46.730Z,33.33
2019-01-20T19:16:17.725Z,35.58
2019-01-20T19:18:48.665Z,34.78
2019-01-20T19:21:19.664Z,35.58
2019-01-20T19:23:50.595Z,35.20
2019-01-20T19:26:21.590Z,33.70
2019-01-20T19:29:03.004Z,34.70
2019-01-20T19:31:29.590Z,34.10
2019-01-20T19:34:00.481Z,35.05
2019-01-20T19:36:31.321Z,35.83
2019-01-20T19:39:02.136Z,31.97
2019-01-20T19:41:33.047Z,35.33
2019-01-20T19:44:04.057Z,31.82
2019-01-20T19:46:37.850Z,31.70
2019-01-20T19:49:08.933Z,35.28
2019-01-20T19:51:39.940Z,32.30
2019-01-20T19:54:11.000Z,36.20
2019-01-20T19:56:41.926Z,33.42
2019-01-20T19:59:12.886Z,35.38
2019-01-20T20:01:43.897Z,36.08
2019-01-20T20:04:14.856Z,33.98
2019-01-20T20:06:45.892Z,35.60
2019-01-20T20:09:16.963Z,34.10
2019-01-20T20:11:47.960Z,38.28
2019-01-20T20:14:18.882Z,34.55
2019-01-20T20:16:53.898Z,35.68
2019-01-20T20:19:24.904Z,37.75
2019-01-20T20:21:55.999Z,35.45
2019-01-20T20:24:27.186Z,35.08
2019-01-20T20:26:58.139Z,35.43
2019-01-20T20:29:29.274Z,35.98
2019-01-20T20:32:00.287Z,38.55
2019-01-20T20:34:31.343Z,37.58
2019-01-20T20:37:02.156Z,35.75
2019-01-20T20:39:33.131Z,39.05
2019-01-20T20:42:04.108Z,39.03
2019-01-20T20:44:35.242Z,36.55
2019-01-20T20:47:06.199Z,39.30
2019-01-20T20:49:37.173Z,35.30
2019-01-20T20:52:08.043Z,38.48
2019-01-20T20:54:39.022Z,34.58
2019-01-20T20:57:09.932Z,36.63
2019-01-20T20:59:41.085Z,35.30
2019-01-20T21:02:12.037Z,39.03
2019-01-20T21:04:44.591Z,37.85
2019-01-20T21:07:15.478Z,36.15
2019-01-20T21:09:46.434Z,37.38
2019-01-20T21:12:17.416Z,36.90
2019-01-20T21:14:48.541Z,37.45
2019-01-20T21:17:21.032Z,39.20
2019-01-20T21:19:52.340Z,39.95
2019-01-20T21:22:23.586Z,34.92
2019-01-20T21:24:54.672Z,34.65
2019-01-20T21:27:25.722Z,36.55
2019-01-20T21:29:56.696Z,33.80
2019-01-20T21:32:27.570Z,36.60
2019-01-20T21:34:58.608Z,34.83
2019-01-20T21:37:29.645Z,36.93
2019-01-20T21:40:00.668Z,38.63
2019-01-20T21:42:31.666Z,36.73
2019-01-20T21:45:02.736Z,37.17
2019-01-20T21:47:33.630Z,37.45
2019-01-20T21:50:07.517Z,36.28
2019-01-20T21:52:38.403Z,37.17
2019-01-20T21:55:09.454Z,35.13
2019-01-20T21:57:40.436Z,36.90
2019-01-20T22:00:15.656Z,33.75
2019-01-20T22:02:46.887Z,32.78
2019-01-20T22:05:17.884Z,35.75
2019-01-20T22:07:48.818Z,36.80
2019-01-20T22:10:22.859Z,38.40
2019-01-20T22:12:53.835Z,36.80
2019-01-20T22:15:24.900Z,36.25
2019-01-20T22:17:55.809Z,36.15
2019-01-20T22:20:26.801Z,35.05
2019-01-20T22:22:57.764Z,35.03
2019-01-20T22:25:28.726Z,35.00
2019-01-20T22:27:59.727Z,34.63
2019-01-20T22:30:30.560Z,35.68
2019-01-20T22:33:01.545Z,34.83
2019-01-20T22:35:32.575Z,33.75
2019-01-20T22:38:03.552Z,36.53
2019-01-20T22:40:34.458Z,32.40
2019-01-20T22:43:05.540Z,38.23
2019-01-20T22:45:36.352Z,35.70
2019-01-20T22:48:07.259Z,38.35
2019-01-20T22:50:38.207Z,35.92
2019-01-20T22:53:09.086Z,37.67
2019-01-20T22:55:39.928Z,36.95
2019-01-20T22:58:10.875Z,34.80
2019-01-20T23:00:50.653Z,34.60
2019-01-20T23:03:21.730Z,35.85
2019-01-20T23:05:52.536Z,36.58
2019-01-20T23:08:23.539Z,39.10
2019-01-20T23:10:54.501Z,36.53
2019-01-20T23:13:25.567Z,37.80
2019-01-20T23:15:56.499Z,37.08
2019-01-20T23:18:27.428Z,34.95
2019-01-20T23:20:58.314Z,35.98
2019-01-20T23:23:29.221Z,37.28
2019-01-20T23:26:00.172Z,36.50
2019-01-20T23:28:31.146Z,34.48
2019-01-20T23:31:02.047Z,37.65
2019-01-20T23:33:32.928Z,36.20
2019-01-20T23:36:03.929Z,37.40
2019-01-20T23:38:34.943Z,36.42
2019-01-20T23:41:05.897Z,38.80
2019-01-20T23:43:36.800Z,35.88
2019-01-20T23:46:07.680Z,36.00
2019-01-20T23:48:38.544Z,36.85
2019-01-20T23:51:09.515Z,37.10
2019-01-20T23:53:40.396Z,35.05
2019-01-20T23:56:11.310Z,36.55
2019-01-20T23:58:42.182Z,37.88
